sensor_id;sensor_type;location;lat;lon;timestamp;pressure;altitude;pressure_sealevel;temperature;humidity
23589;BME280;11972;48.078;11.876;2023-03-20T00:03:01;95558.41;;;8.18;100.00
23589;BME280;11972;48.078;11.876;2023-03-20T00:07:04;95562.72;;;8.11;100.00
23589;BME280;11972;48.078;11.876;2023-03-20T00:11:30;95553.53;;;8.07;100.00
23589;BME280;11972;48.078;11.876;2023-03-20T00:15:36;95559.09;;;8.04;100.00
23589;BME280;11972;48.078;11.876;2023-03-20T00:19:37;95559.44;;;8.01;100.00
23589;BME280;11972;48.078;11.876;2023-03-20T00:23:37;95567.63;;;7.97;100.00
23589;BME280;11972;48.078;11.876;2023-03-20T00:27:38;95558.13;;;7.96;100.00
23589;BME280;11972;48.078;11.876;2023-03-20T00:31:38;95566.00;;;7.96;100.00
23589;BME280;11972;48.078;11.876;2023-03-20T00:35:38;95566.00;;;7.96;100.00
23589;BME280;11972;48.078;11.876;2023-03-20T00:39:40;95566.81;;;7.97;100.00
23589;BME280;11972;48.078;11.876;2023-03-20T00:43:40;95561.75;;;7.95;100.00
23589;BME280;11972;48.078;11.876;2023-03-20T00:47:40;95557.47;;;7.94;100.00
23589;BME280;11972;48.078;11.876;2023-03-20T00:51:41;95560.25;;;7.93;100.00
23589;BME280;11972;48.078;11.876;2023-03-20T00:55:41;95556.97;;;7.91;100.00
23589;BME280;11972;48.078;11.876;2023-03-20T01:04:28;95559.25;;;7.86;100.00
23589;BME280;11972;48.078;11.876;2023-03-20T01:08:30;95566.19;;;7.87;100.00
23589;BME280;11972;48.078;11.876;2023-03-20T01:12:31;95563.38;;;7.88;100.00
23589;BME280;11972;48.078;11.876;2023-03-20T01:16:31;95564.38;;;7.87;100.00
23589;BME280;11972;48.078;11.876;2023-03-20T01:20:31;95563.38;;;7.88;100.00
23589;BME280;11972;48.078;11.876;2023-03-20T01:24:32;95558.13;;;7.88;100.00
23589;BME280;11972;48.078;11.876;2023-03-20T01:28:32;95563.38;;;7.88;100.00
23589;BME280;11972;48.078;11.876;2023-03-20T01:32:32;95557.28;;;7.88;100.00
23589;BME280;11972;48.078;11.876;2023-03-20T01:36:33;95555.66;;;7.87;100.00
23589;BME280;11972;48.078;11.876;2023-03-20T01:40:43;95567.00;;;7.87;100.00
23589;BME280;11972;48.078;11.876;2023-03-20T01:44:46;95569.78;;;7.86;100.00
23589;BME280;11972;48.078;11.876;2023-03-20T01:53:01;95567.31;;;7.84;100.00
23589;BME280;11972;48.078;11.876;2023-03-20T01:57:15;95566.50;;;7.84;100.00
23589;BME280;11972;48.078;11.876;2023-03-20T02:01:16;95559.59;;;7.83;100.00
23589;BME280;11972;48.078;11.876;2023-03-20T02:05:20;95558.78;;;7.82;100.00
23589;BME280;11972;48.078;11.876;2023-03-20T02:09:21;95560.75;;;7.80;100.00
23589;BME280;11972;48.078;11.876;2023-03-20T02:13:21;95564.38;;;7.79;100.00
23589;BME280;11972;48.078;11.876;2023-03-20T02:17:23;95564.38;;;7.79;100.00
23589;BME280;11972;48.078;11.876;2023-03-20T02:21:55;95566.81;;;7.81;100.00
23589;BME280;11972;48.078;11.876;2023-03-20T02:26:53;95561.41;;;7.82;100.00
23589;BME280;11972;48.078;11.876;2023-03-20T02:31:13;95562.88;;;7.85;100.00
23589;BME280;11972;48.078;11.876;2023-03-20T02:39:39;95552.84;;;7.88;100.00
23589;BME280;11972;48.078;11.876;2023-03-20T02:52:04;95551.84;;;7.89;100.00
23589;BME280;11972;48.078;11.876;2023-03-20T02:56:13;95547.41;;;7.90;100.00
23589;BME280;11972;48.078;11.876;2023-03-20T03:00:29;95552.53;;;7.91;100.00
23589;BME280;11972;48.078;11.876;2023-03-20T03:04:39;95550.41;;;7.87;100.00
23589;BME280;11972;48.078;11.876;2023-03-20T03:08:46;95551.53;;;7.84;100.00
23589;BME280;11972;48.078;11.876;2023-03-20T03:12:50;95555.16;;;7.83;100.00
23589;BME280;11972;48.078;11.876;2023-03-20T03:16:51;95549.41;;;7.80;100.00
23589;BME280;11972;48.078;11.876;2023-03-20T03:20:56;95556.31;;;7.81;100.00
23589;BME280;11972;48.078;11.876;2023-03-20T03:24:56;95553.84;;;7.79;100.00
23589;BME280;11972;48.078;11.876;2023-03-20T03:29:00;95555.47;;;7.80;100.00
23589;BME280;11972;48.078;11.876;2023-03-20T03:33:14;95558.13;;;7.80;100.00
23589;BME280;11972;48.078;11.876;2023-03-20T03:37:38;95561.56;;;7.81;100.00
23589;BME280;11972;48.078;11.876;2023-03-20T03:41:44;95557.97;;;7.82;100.00
23589;BME280;11972;48.078;11.876;2023-03-20T03:45:55;95559.09;;;7.79;100.00
23589;BME280;11972;48.078;11.876;2023-03-20T03:50:02;95564.69;;;7.76;100.00
23589;BME280;11972;48.078;11.876;2023-03-20T03:54:08;95571.94;;;7.74;100.00
23589;BME280;11972;48.078;11.876;2023-03-20T03:58:15;95571.09;;;7.74;100.00
23589;BME280;11972;48.078;11.876;2023-03-20T04:02:18;95571.94;;;7.74;100.00
23589;BME280;11972;48.078;11.876;2023-03-20T04:06:20;95575.53;;;7.73;100.00
23589;BME280;11972;48.078;11.876;2023-03-20T04:10:21;95578.63;;;7.68;100.00
23589;BME280;11972;48.078;11.876;2023-03-20T04:14:21;95587.03;;;7.64;100.00
23589;BME280;11972;48.078;11.876;2023-03-20T04:18:22;95587.34;;;7.61;100.00
23589;BME280;11972;48.078;11.876;2023-03-20T04:22:22;95599.84;;;7.59;100.00
23589;BME280;11972;48.078;11.876;2023-03-20T04:26:23;95596.22;;;7.60;100.00
23589;BME280;11972;48.078;11.876;2023-03-20T04:30:23;95599.84;;;7.59;100.00
23589;BME280;11972;48.078;11.876;2023-03-20T04:34:23;95610.66;;;7.56;100.00
23589;BME280;11972;48.078;11.876;2023-03-20T04:38:24;95620.66;;;7.52;100.00
23589;BME280;11972;48.078;11.876;2023-03-20T04:42:24;95626.28;;;7.49;100.00
23589;BME280;11972;48.078;11.876;2023-03-20T04:46:25;95624.09;;;7.44;100.00
23589;BME280;11972;48.078;11.876;2023-03-20T04:50:25;95624.09;;;7.44;100.00
23589;BME280;11972;48.078;11.876;2023-03-20T04:54:26;95630.22;;;7.45;100.00
23589;BME280;11972;48.078;11.876;2023-03-20T04:58:26;95626.91;;;7.43;100.00
23589;BME280;11972;48.078;11.876;2023-03-20T05:02:26;95637.59;;;7.41;100.00
23589;BME280;11972;48.078;11.876;2023-03-20T05:06:27;95634.97;;;7.41;100.00
23589;BME280;11972;48.078;11.876;2023-03-20T05:10:28;95638.41;;;7.42;100.00
23589;BME280;11972;48.078;11.876;2023-03-20T05:14:28;95644.47;;;7.42;100.00
23589;BME280;11972;48.078;11.876;2023-03-20T05:18:28;95651.53;;;7.42;100.00
23589;BME280;11972;48.078;11.876;2023-03-20T05:22:29;95647.41;;;7.39;100.00
23589;BME280;11972;48.078;11.876;2023-03-20T05:26:29;95651.03;;;7.38;100.00
23589;BME280;11972;48.078;11.876;2023-03-20T05:30:30;95656.13;;;7.40;100.00
23589;BME280;11972;48.078;11.876;2023-03-20T05:34:30;95652.53;;;7.41;100.00
23589;BME280;11972;48.078;11.876;2023-03-20T05:38:30;95658.59;;;7.41;100.00
23589;BME280;11972;48.078;11.876;2023-03-20T05:42:30;95653.19;;;7.43;100.00
23589;BME280;11972;48.078;11.876;2023-03-20T05:46:31;95655.63;;;7.44;100.00
23589;BME280;11972;48.078;11.876;2023-03-20T05:50:31;95658.94;;;7.46;100.00
23589;BME280;11972;48.078;11.876;2023-03-20T05:54:31;95664.38;;;7.45;100.00
23589;BME280;11972;48.078;11.876;2023-03-20T05:58:32;95671.25;;;7.46;100.00
23589;BME280;11972;48.078;11.876;2023-03-20T06:02:32;95676.66;;;7.44;100.00
23589;BME280;11972;48.078;11.876;2023-03-20T06:06:33;95674.72;;;7.46;100.00
23589;BME280;11972;48.078;11.876;2023-03-20T06:10:36;95676.03;;;7.51;100.00
23589;BME280;11972;48.078;11.876;2023-03-20T06:14:37;95686.06;;;7.55;100.00
23589;BME280;11972;48.078;11.876;2023-03-20T06:18:37;95690.19;;;7.58;100.00
23589;BME280;11972;48.078;11.876;2023-03-20T06:22:38;95691.66;;;7.60;100.00
23589;BME280;11972;48.078;11.876;2023-03-20T06:26:38;95694.28;;;7.60;100.00
23589;BME280;11972;48.078;11.876;2023-03-20T06:30:38;95699.06;;;7.65;100.00
23589;BME280;11972;48.078;11.876;2023-03-20T06:34:39;95704.69;;;7.70;100.00
23589;BME280;11972;48.078;11.876;2023-03-20T06:38:40;95690.06;;;7.76;100.00
23589;BME280;11972;48.078;11.876;2023-03-20T06:42:40;95698.81;;;7.84;100.00
23589;BME280;11972;48.078;11.876;2023-03-20T06:46:40;95705.22;;;7.90;100.00
23589;BME280;11972;48.078;11.876;2023-03-20T06:50:41;95700.16;;;7.96;100.00
23589;BME280;11972;48.078;11.876;2023-03-20T06:54:41;95709.03;;;8.04;100.00
23589;BME280;11972;48.078;11.876;2023-03-20T06:58:42;95715.97;;;8.13;100.00
23589;BME280;11972;48.078;11.876;2023-03-20T07:02:42;95722.25;;;8.28;100.00
23589;BME280;11972;48.078;11.876;2023-03-20T07:06:43;95709.94;;;8.45;100.00
23589;BME280;11972;48.078;11.876;2023-03-20T07:10:43;95715.34;;;8.60;100.00
23589;BME280;11972;48.078;11.876;2023-03-20T07:14:44;95715.69;;;8.73;100.00
23589;BME280;11972;48.078;11.876;2023-03-20T07:18:44;95720.28;;;8.79;100.00
23589;BME280;11972;48.078;11.876;2023-03-20T07:22:46;95719.97;;;8.82;100.00
23589;BME280;11972;48.078;11.876;2023-03-20T07:26:47;95720.44;;;8.86;100.00
23589;BME280;11972;48.078;11.876;2023-03-20T07:30:47;95719.44;;;8.95;100.00
23589;BME280;11972;48.078;11.876;2023-03-20T07:34:47;95714.66;;;8.99;100.00
23589;BME280;11972;48.078;11.876;2023-03-20T07:38:49;95725.53;;;9.04;100.00
23589;BME280;11972;48.078;11.876;2023-03-20T07:42:49;95728.13;;;9.12;100.00
23589;BME280;11972;48.078;11.876;2023-03-20T07:46:49;95727.13;;;9.13;100.00
23589;BME280;11972;48.078;11.876;2023-03-20T07:50:50;95739.34;;;9.22;100.00
23589;BME280;11972;48.078;11.876;2023-03-20T07:54:50;95739.28;;;9.38;100.00
23589;BME280;11972;48.078;11.876;2023-03-20T07:58:50;95736.63;;;9.47;100.00
23589;BME280;11972;48.078;11.876;2023-03-20T08:02:51;95742.97;;;9.68;100.00
23589;BME280;11972;48.078;11.876;2023-03-20T08:06:51;95742.78;;;9.70;100.00
23589;BME280;11972;48.078;11.876;2023-03-20T08:10:51;95739.59;;;9.83;100.00
23589;BME280;11972;48.078;11.876;2023-03-20T08:14:52;95750.47;;;9.88;100.00
23589;BME280;11972;48.078;11.876;2023-03-20T08:18:52;95749.19;;;9.84;100.00
23589;BME280;11972;48.078;11.876;2023-03-20T08:22:55;95745.59;;;10.00;100.00
23589;BME280;11972;48.078;11.876;2023-03-20T08:26:55;95743.75;;;10.39;100.00
23589;BME280;11972;48.078;11.876;2023-03-20T08:30:56;95739.25;;;10.48;100.00
23589;BME280;11972;48.078;11.876;2023-03-20T08:34:56;95744.66;;;10.55;100.00
23589;BME280;11972;48.078;11.876;2023-03-20T08:38:56;95745.47;;;10.55;100.00
23589;BME280;11972;48.078;11.876;2023-03-20T08:42:57;95742.66;;;10.57;100.00
23589;BME280;11972;48.078;11.876;2023-03-20T08:46:57;95750.50;;;10.65;100.00
23589;BME280;11972;48.078;11.876;2023-03-20T08:50:58;95759.72;;;10.69;100.00
23589;BME280;11972;48.078;11.876;2023-03-20T08:54:58;95747.06;;;11.02;100.00
23589;BME280;11972;48.078;11.876;2023-03-20T08:58:59;95739.91;;;11.26;100.00
23589;BME280;11972;48.078;11.876;2023-03-20T09:02:59;95733.97;;;11.68;100.00
23589;BME280;11972;48.078;11.876;2023-03-20T09:07:00;95731.22;;;12.06;100.00
23589;BME280;11972;48.078;11.876;2023-03-20T09:11:02;95723.69;;;12.46;100.00
23589;BME280;11972;48.078;11.876;2023-03-20T09:15:04;95725.69;;;12.86;100.00
23589;BME280;11972;48.078;11.876;2023-03-20T09:19:04;95715.47;;;12.83;100.00
23589;BME280;11972;48.078;11.876;2023-03-20T09:23:05;95716.63;;;12.74;100.00
23589;BME280;11972;48.078;11.876;2023-03-20T09:27:05;95721.03;;;12.67;100.00
23589;BME280;11972;48.078;11.876;2023-03-20T09:31:06;95725.75;;;12.29;100.00
23589;BME280;11972;48.078;11.876;2023-03-20T09:35:06;95719.25;;;11.80;100.00
23589;BME280;11972;48.078;11.876;2023-03-20T09:39:06;95724.38;;;11.97;100.00
23589;BME280;11972;48.078;11.876;2023-03-20T09:48:00;95717.75;;;12.22;100.00
23589;BME280;11972;48.078;11.876;2023-03-20T09:56:15;95730.69;;;12.53;100.00
23589;BME280;11972;48.078;11.876;2023-03-20T10:00:23;95716.63;;;12.74;100.00
23589;BME280;11972;48.078;11.876;2023-03-20T10:04:27;95723.56;;;12.75;100.00
23589;BME280;11972;48.078;11.876;2023-03-20T10:08:32;95714.47;;;12.63;100.00
23589;BME280;11972;48.078;11.876;2023-03-20T10:12:51;95722.13;;;12.51;100.00
23589;BME280;11972;48.078;11.876;2023-03-20T10:17:30;95719.41;;;12.66;100.00
23589;BME280;11972;48.078;11.876;2023-03-20T10:21:41;95713.75;;;12.48;100.00
23589;BME280;11972;48.078;11.876;2023-03-20T10:25:50;95723.19;;;12.57;100.00
23589;BME280;11972;48.078;11.876;2023-03-20T10:34:43;95705.94;;;12.89;100.00
23589;BME280;11972;48.078;11.876;2023-03-20T10:43:17;95696.88;;;14.15;100.00
23589;BME280;11972;48.078;11.876;2023-03-20T10:47:20;95692.44;;;13.81;100.00
23589;BME280;11972;48.078;11.876;2023-03-20T10:52:01;95689.78;;;13.40;100.00
23589;BME280;11972;48.078;11.876;2023-03-20T10:55:56;95678.03;;;13.21;100.00
23589;BME280;11972;48.078;11.876;2023-03-20T10:59:58;95680.63;;;13.43;100.00
23589;BME280;11972;48.078;11.876;2023-03-20T11:03:59;95685.13;;;13.49;100.00
23589;BME280;11972;48.078;11.876;2023-03-20T11:08:08;95686.00;;;13.21;100.00
23589;BME280;11972;48.078;11.876;2023-03-20T11:12:16;95678.47;;;12.97;100.00
23589;BME280;11972;48.078;11.876;2023-03-20T11:16:40;95675.00;;;13.24;100.00
23589;BME280;11972;48.078;11.876;2023-03-20T11:20:46;95673.47;;;13.84;100.00
23589;BME280;11972;48.078;11.876;2023-03-20T11:24:53;95669.63;;;13.46;100.00
23589;BME280;11972;48.078;11.876;2023-03-20T11:28:57;95666.69;;;13.06;100.00
23589;BME280;11972;48.078;11.876;2023-03-20T11:32:58;95663.13;;;12.42;100.00
23589;BME280;11972;48.078;11.876;2023-03-20T11:37:21;95657.03;;;12.21;100.00
23589;BME280;11972;48.078;11.876;2023-03-20T11:41:25;95665.78;;;12.42;100.00
23589;BME280;11972;48.078;11.876;2023-03-20T11:45:32;95655.06;;;13.07;100.00
23589;BME280;11972;48.078;11.876;2023-03-20T11:49:45;95661.09;;;14.11;100.00
23589;BME280;11972;48.078;11.876;2023-03-20T11:57:48;95644.84;;;14.54;100.00
23589;BME280;11972;48.078;11.876;2023-03-20T12:01:51;95642.09;;;14.08;100.00
23589;BME280;11972;48.078;11.876;2023-03-20T12:05:58;95641.78;;;13.76;100.00
23589;BME280;11972;48.078;11.876;2023-03-20T12:10:05;95636.28;;;13.36;100.00
23589;BME280;11972;48.078;11.876;2023-03-20T12:14:14;95631.78;;;13.30;100.00
23589;BME280;11972;48.078;11.876;2023-03-20T12:18:30;95621.00;;;13.38;100.00
23589;BME280;11972;48.078;11.876;2023-03-20T12:22:37;95635.22;;;13.72;100.00
23589;BME280;11972;48.078;11.876;2023-03-20T12:35:23;95618.63;;;14.45;100.00
23589;BME280;11972;48.078;11.876;2023-03-20T12:39:47;95617.41;;;14.47;100.00
23589;BME280;11972;48.078;11.876;2023-03-20T12:44:03;95613.34;;;14.71;100.00
23589;BME280;11972;48.078;11.876;2023-03-20T13:01:03;95624.38;;;14.55;100.00
23589;BME280;11972;48.078;11.876;2023-03-20T13:05:23;95625.00;;;14.57;100.00
23589;BME280;11972;48.078;11.876;2023-03-20T13:30:34;95626.13;;;13.12;100.00
23589;BME280;11972;48.078;11.876;2023-03-20T13:43:33;95620.84;;;13.53;100.00
23589;BME280;11972;48.078;11.876;2023-03-20T13:47:36;95618.47;;;13.24;100.00
23589;BME280;11972;48.078;11.876;2023-03-20T13:52:20;95613.41;;;13.29;100.00
23589;BME280;11972;48.078;11.876;2023-03-20T14:00:37;95604.75;;;13.61;100.00
23589;BME280;11972;48.078;11.876;2023-03-20T14:04:41;95603.50;;;14.38;100.00
23589;BME280;11972;48.078;11.876;2023-03-20T14:08:52;95594.94;;;14.70;100.00
23589;BME280;11972;48.078;11.876;2023-03-20T14:13:00;95593.09;;;14.50;100.00
23589;BME280;11972;48.078;11.876;2023-03-20T14:17:16;95596.34;;;14.26;100.00
23589;BME280;11972;48.078;11.876;2023-03-20T14:21:19;95585.47;;;13.87;100.00
23589;BME280;11972;48.078;11.876;2023-03-20T14:25:23;95590.16;;;13.99;100.00
23589;BME280;11972;48.078;11.876;2023-03-20T14:29:34;95583.03;;;14.06;100.00
23589;BME280;11972;48.078;11.876;2023-03-20T14:33:42;95577.13;;;14.90;100.00
23589;BME280;11972;48.078;11.876;2023-03-20T14:38:09;95576.34;;;15.93;100.00
23589;BME280;11972;48.078;11.876;2023-03-20T14:47:09;95575.94;;;15.37;100.00
23589;BME280;11972;48.078;11.876;2023-03-20T14:51:27;95572.81;;;15.02;100.00
23589;BME280;11972;48.078;11.876;2023-03-20T14:55:33;95564.56;;;15.17;100.00
23589;BME280;11972;48.078;11.876;2023-03-20T14:59:48;95556.84;;;15.54;100.00
23589;BME280;11972;48.078;11.876;2023-03-20T15:04:06;95568.38;;;15.34;100.00
23589;BME280;11972;48.078;11.876;2023-03-20T15:08:19;95562.53;;;15.06;100.00
23589;BME280;11972;48.078;11.876;2023-03-20T15:12:24;95569.16;;;14.90;100.00
23589;BME280;11972;48.078;11.876;2023-03-20T15:16:30;95565.69;;;14.63;100.00
23589;BME280;11972;48.078;11.876;2023-03-20T15:20:30;95562.84;;;14.45;100.00
23589;BME280;11972;48.078;11.876;2023-03-20T15:24:31;95561.81;;;14.32;100.00
23589;BME280;11972;48.078;11.876;2023-03-20T15:28:31;95563.03;;;14.30;100.00
23589;BME280;11972;48.078;11.876;2023-03-20T15:32:32;95554.03;;;14.24;100.00
23589;BME280;11972;48.078;11.876;2023-03-20T15:36:34;95562.81;;;14.05;100.00
23589;BME280;11972;48.078;11.876;2023-03-20T15:40:39;95559.28;;;13.71;100.00
23589;BME280;11972;48.078;11.876;2023-03-20T15:44:41;95565.34;;;13.52;100.00
23589;BME280;11972;48.078;11.876;2023-03-20T15:48:46;95569.59;;;13.39;100.00
23589;BME280;11972;48.078;11.876;2023-03-20T15:52:47;95554.66;;;13.25;100.00
23589;BME280;11972;48.078;11.876;2023-03-20T15:56:54;95555.47;;;13.32;100.00
23589;BME280;11972;48.078;11.876;2023-03-20T16:00:55;95555.59;;;13.18;100.00
23589;BME280;11972;48.078;11.876;2023-03-20T16:04:56;95561.81;;;12.97;100.00
23589;BME280;11972;48.078;11.876;2023-03-20T16:09:01;95556.91;;;12.94;100.00
23589;BME280;11972;48.078;11.876;2023-03-20T16:13:06;95553.22;;;12.95;100.00
23589;BME280;11972;48.078;11.876;2023-03-20T16:17:06;95552.63;;;12.93;100.00
23589;BME280;11972;48.078;11.876;2023-03-20T16:21:12;95561.41;;;13.00;100.00
23589;BME280;11972;48.078;11.876;2023-03-20T16:25:16;95554.94;;;13.09;100.00
23589;BME280;11972;48.078;11.876;2023-03-20T16:29:18;95554.34;;;12.79;100.00
23589;BME280;11972;48.078;11.876;2023-03-20T16:33:20;95554.16;;;12.46;100.00
23589;BME280;11972;48.078;11.876;2023-03-20T16:37:29;95546.00;;;12.19;100.00
23589;BME280;11972;48.078;11.876;2023-03-20T16:41:32;95538.84;;;11.91;100.00
23589;BME280;11972;48.078;11.876;2023-03-20T16:45:34;95546.09;;;11.68;100.00
23589;BME280;11972;48.078;11.876;2023-03-20T16:50:01;95545.94;;;11.48;100.00
23589;BME280;11972;48.078;11.876;2023-03-20T16:54:02;95549.41;;;11.34;100.00
23589;BME280;11972;48.078;11.876;2023-03-20T16:58:04;95557.03;;;11.43;100.00
23589;BME280;11972;48.078;11.876;2023-03-20T17:02:24;95550.00;;;11.51;100.00
23589;BME280;11972;48.078;11.876;2023-03-20T17:06:35;95560.00;;;11.34;100.00
23589;BME280;11972;48.078;11.876;2023-03-20T17:10:36;95565.41;;;11.11;100.00
23589;BME280;11972;48.078;11.876;2023-03-20T17:14:38;95571.34;;;10.83;100.00
23589;BME280;11972;48.078;11.876;2023-03-20T17:18:58;95572.72;;;10.50;100.00
23589;BME280;11972;48.078;11.876;2023-03-20T17:22:59;95571.03;;;10.11;100.00
23589;BME280;11972;48.078;11.876;2023-03-20T17:26:59;95576.84;;;9.83;100.00
23589;BME280;11972;48.078;11.876;2023-03-20T17:30:59;95584.78;;;9.60;100.00
23589;BME280;11972;48.078;11.876;2023-03-20T17:35:06;95587.03;;;9.40;100.00
23589;BME280;11972;48.078;11.876;2023-03-20T17:39:19;95588.44;;;9.20;100.00
23589;BME280;11972;48.078;11.876;2023-03-20T17:43:20;95591.47;;;9.01;100.00
23589;BME280;11972;48.078;11.876;2023-03-20T17:47:23;95590.22;;;8.80;100.00
23589;BME280;11972;48.078;11.876;2023-03-20T17:51:24;95596.88;;;8.52;100.00
23589;BME280;11972;48.078;11.876;2023-03-20T17:55:24;95593.78;;;8.24;100.00
23589;BME280;11972;48.078;11.876;2023-03-20T17:59:24;95596.25;;;8.17;100.00
23589;BME280;11972;48.078;11.876;2023-03-20T18:03:27;95593.78;;;8.24;100.00
23589;BME280;11972;48.078;11.876;2023-03-20T18:07:28;95592.31;;;8.13;100.00
23589;BME280;11972;48.078;11.876;2023-03-20T18:11:28;95599.38;;;7.96;100.00
23589;BME280;11972;48.078;11.876;2023-03-20T18:15:29;95595.59;;;7.90;100.00
23589;BME280;11972;48.078;11.876;2023-03-20T18:19:30;95601.00;;;7.89;100.00
23589;BME280;11972;48.078;11.876;2023-03-20T18:23:31;95603.81;;;7.87;100.00
23589;BME280;11972;48.078;11.876;2023-03-20T18:27:32;95609.41;;;7.84;100.00
23589;BME280;11972;48.078;11.876;2023-03-20T18:31:32;95601.47;;;7.68;100.00
23589;BME280;11972;48.078;11.876;2023-03-20T18:35:33;95611.94;;;7.43;100.00
23589;BME280;11972;48.078;11.876;2023-03-20T18:39:34;95605.19;;;7.25;100.00
23589;BME280;11972;48.078;11.876;2023-03-20T18:43:34;95615.94;;;7.05;100.00
23589;BME280;11972;48.078;11.876;2023-03-20T18:47:35;95616.84;;;6.88;100.00
23589;BME280;11972;48.078;11.876;2023-03-20T18:51:35;95617.06;;;6.68;100.00
23589;BME280;11972;48.078;11.876;2023-03-20T18:55:36;95622.75;;;6.56;100.00
23589;BME280;11972;48.078;11.876;2023-03-20T18:59:37;95615.81;;;6.46;100.00
23589;BME280;11972;48.078;11.876;2023-03-20T19:03:38;95622.84;;;6.46;100.00
23589;BME280;11972;48.078;11.876;2023-03-20T19:07:40;95631.84;;;6.43;100.00
23589;BME280;11972;48.078;11.876;2023-03-20T19:11:41;95627.88;;;6.39;100.00
23589;BME280;11972;48.078;11.876;2023-03-20T19:15:42;95633.72;;;6.33;100.00
23589;BME280;11972;48.078;11.876;2023-03-20T19:19:43;95643.22;;;6.26;100.00
23589;BME280;11972;48.078;11.876;2023-03-20T19:23:43;95644.03;;;6.27;100.00
23589;BME280;11972;48.078;11.876;2023-03-20T19:27:43;95638.59;;;6.46;100.00
23589;BME280;11972;48.078;11.876;2023-03-20T19:31:44;95644.13;;;6.69;100.00
23589;BME280;11972;48.078;11.876;2023-03-20T19:35:45;95644.44;;;6.92;100.00
23589;BME280;11972;48.078;11.876;2023-03-20T19:39:47;95641.72;;;7.10;100.00
23589;BME280;11972;48.078;11.876;2023-03-20T19:43:47;95644.41;;;7.26;100.00
23589;BME280;11972;48.078;11.876;2023-03-20T19:47:48;95650.22;;;7.38;100.00
23589;BME280;11972;48.078;11.876;2023-03-20T19:51:48;95642.34;;;7.46;100.00
23589;BME280;11972;48.078;11.876;2023-03-20T19:55:49;95638.22;;;7.43;100.00
23589;BME280;11972;48.078;11.876;2023-03-20T19:59:50;95636.91;;;7.39;100.00
23589;BME280;11972;48.078;11.876;2023-03-20T20:03:50;95639.38;;;7.41;100.00
23589;BME280;11972;48.078;11.876;2023-03-20T20:07:53;95641.84;;;7.42;100.00
23589;BME280;11972;48.078;11.876;2023-03-20T20:11:53;95640.72;;;7.45;100.00
23589;BME280;11972;48.078;11.876;2023-03-20T20:15:54;95645.16;;;7.53;100.00
23589;BME280;11972;48.078;11.876;2023-03-20T20:19:55;95640.59;;;7.63;100.00
23589;BME280;11972;48.078;11.876;2023-03-20T20:23:55;95637.81;;;7.72;100.00
23589;BME280;11972;48.078;11.876;2023-03-20T20:27:55;95639.63;;;7.80;100.00
23589;BME280;11972;48.078;11.876;2023-03-20T20:31:58;95632.75;;;7.87;100.00
23589;BME280;11972;48.078;11.876;2023-03-20T20:35:58;95636.69;;;7.91;100.00
23589;BME280;11972;48.078;11.876;2023-03-20T20:40:00;95632.09;;;8.02;100.00
23589;BME280;11972;48.078;11.876;2023-03-20T20:44:00;95626.50;;;8.05;100.00
23589;BME280;11972;48.078;11.876;2023-03-20T20:48:01;95628.13;;;7.97;100.00
23589;BME280;11972;48.078;11.876;2023-03-20T20:52:03;95631.13;;;7.94;100.00
23589;BME280;11972;48.078;11.876;2023-03-20T20:56:04;95628.97;;;7.98;100.00
23589;BME280;11972;48.078;11.876;2023-03-20T21:00:07;95631.75;;;8.05;100.00
23589;BME280;11972;48.078;11.876;2023-03-20T21:04:08;95630.28;;;8.10;100.00
23589;BME280;11972;48.078;11.876;2023-03-20T21:08:09;95633.09;;;8.09;100.00
23589;BME280;11972;48.078;11.876;2023-03-20T21:12:11;95631.75;;;8.05;100.00
23589;BME280;11972;48.078;11.876;2023-03-20T21:16:12;95631.59;;;8.06;100.00
23589;BME280;11972;48.078;11.876;2023-03-20T21:20:14;95627.19;;;8.15;100.00
23589;BME280;11972;48.078;11.876;2023-03-20T21:24:14;95639.84;;;8.19;100.00
23589;BME280;11972;48.078;11.876;2023-03-20T21:28:14;95629.97;;;8.21;100.00
23589;BME280;11972;48.078;11.876;2023-03-20T21:32:17;95624.56;;;8.23;100.00
23589;BME280;11972;48.078;11.876;2023-03-20T21:36:20;95635.53;;;8.27;100.00
23589;BME280;11972;48.078;11.876;2023-03-20T21:40:20;95631.78;;;8.21;100.00
23589;BME280;11972;48.078;11.876;2023-03-20T21:44:21;95632.09;;;8.10;100.00
23589;BME280;11972;48.078;11.876;2023-03-20T21:48:22;95631.44;;;8.00;100.00
23589;BME280;11972;48.078;11.876;2023-03-20T21:52:22;95625.50;;;7.97;100.00
23589;BME280;11972;48.078;11.876;2023-03-20T21:56:22;95630.13;;;8.04;100.00
23589;BME280;11972;48.078;11.876;2023-03-20T22:00:23;95624.19;;;8.10;100.00
23589;BME280;11972;48.078;11.876;2023-03-20T22:04:23;95623.88;;;8.13;100.00
23589;BME280;11972;48.078;11.876;2023-03-20T22:08:24;95623.38;;;8.09;100.00
23589;BME280;11972;48.078;11.876;2023-03-20T22:12:24;95632.06;;;7.85;100.00
23589;BME280;11972;48.078;11.876;2023-03-20T22:16:25;95637.63;;;7.58;100.00
23589;BME280;11972;48.078;11.876;2023-03-20T22:20:25;95631.31;;;7.34;100.00
23589;BME280;11972;48.078;11.876;2023-03-20T22:24:25;95633.56;;;7.21;100.00
23589;BME280;11972;48.078;11.876;2023-03-20T22:28:27;95635.44;;;7.03;100.00
23589;BME280;11972;48.078;11.876;2023-03-20T22:32:27;95631.38;;;6.74;100.00
23589;BME280;11972;48.078;11.876;2023-03-20T22:36:28;95632.88;;;6.51;100.00
23589;BME280;11972;48.078;11.876;2023-03-20T22:40:29;95640.94;;;6.31;100.00
23589;BME280;11972;48.078;11.876;2023-03-20T22:44:29;95635.56;;;6.15;100.00
23589;BME280;11972;48.078;11.876;2023-03-20T22:48:30;95630.91;;;6.09;100.00
23589;BME280;11972;48.078;11.876;2023-03-20T22:52:30;95636.50;;;6.06;100.00